createdAt,value
2019-05-29T00:01:19.844Z,48.22
2019-05-29T00:03:46.025Z,48.32
2019-05-29T00:06:14.470Z,48.44
2019-05-29T00:08:43.163Z,48.32
2019-05-29T00:11:12.254Z,48.38
2019-05-29T00:13:40.791Z,48.10
2019-05-29T00:16:10.279Z,48.15
2019-05-29T00:18:39.134Z,48.22
2019-05-29T00:21:08.310Z,47.96
2019-05-29T00:23:37.148Z,48.11
2019-05-29T00:26:06.338Z,48.17
2019-05-29T00:28:34.849Z,48.15
2019-05-29T00:31:03.412Z,48.17
2019-05-29T00:33:31.779Z,47.97
2019-05-29T00:36:00.254Z,47.78
2019-05-29T00:38:29.144Z,47.88
2019-05-29T00:40:57.935Z,47.93
2019-05-29T00:43:26.327Z,48.01
2019-05-29T00:45:54.799Z,48.29
2019-05-29T00:48:23.588Z,48.18
2019-05-29T00:50:52.046Z,48.56
2019-05-29T00:53:20.859Z,48.36
2019-05-29T00:55:49.245Z,48.58
2019-05-29T00:58:17.683Z,48.86
2019-05-29T01:00:46.229Z,49.05
2019-05-29T01:03:15.869Z,49.36
2019-05-29T01:05:44.813Z,49.54
2019-05-29T01:08:14.430Z,49.42
2019-05-29T01:10:43.008Z,49.71
2019-05-29T01:13:11.384Z,49.71
2019-05-29T01:15:39.862Z,49.83
2019-05-29T01:18:08.379Z,50.00
2019-05-29T01:20:37.236Z,49.92
2019-05-29T01:23:05.599Z,50.02
2019-05-29T01:25:34.014Z,50.30
2019-05-29T01:28:02.538Z,50.28
2019-05-29T01:30:31.002Z,50.43
2019-05-29T01:32:59.445Z,50.92
2019-05-29T01:35:27.893Z,51.51
2019-05-29T01:37:56.396Z,51.65
2019-05-29T01:40:27.939Z,51.75
2019-05-29T01:42:55.003Z,51.91
2019-05-29T01:45:23.631Z,52.31
2019-05-29T01:47:52.085Z,52.39
2019-05-29T01:50:21.750Z,52.67
2019-05-29T01:52:50.725Z,52.68
2019-05-29T01:55:19.824Z,53.02
2019-05-29T01:57:48.307Z,53.11
2019-05-29T02:00:17.807Z,53.21
2019-05-29T02:02:46.336Z,53.28
2019-05-29T02:05:16.063Z,53.61
2019-05-29T02:07:44.629Z,54.16
2019-05-29T02:10:13.458Z,54.26
2019-05-29T02:12:41.827Z,54.43
2019-05-29T02:15:24.751Z,54.68
2019-05-29T02:17:41.149Z,54.90
2019-05-29T02:20:10.202Z,55.05
2019-05-29T02:22:38.676Z,55.02
2019-05-29T02:25:07.592Z,54.93
2019-05-29T02:27:36.407Z,54.91
2019-05-29T02:30:08.193Z,55.36
2019-05-29T02:32:36.802Z,55.45
2019-05-29T02:35:08.811Z,55.34
2019-05-29T02:37:37.276Z,55.46
2019-05-29T02:40:07.401Z,55.54
2019-05-29T02:42:35.860Z,55.85
2019-05-29T02:45:05.959Z,55.72
2019-05-29T02:47:34.375Z,55.83
2019-05-29T02:50:03.498Z,56.24
2019-05-29T02:52:31.895Z,56.35
2019-05-29T02:55:00.286Z,56.24
2019-05-29T02:57:29.114Z,56.26
2019-05-29T02:59:57.745Z,56.39
2019-05-29T03:02:27.793Z,56.34
2019-05-29T03:04:56.536Z,56.70
2019-05-29T03:07:26.343Z,56.62
2019-05-29T03:09:54.957Z,56.59
2019-05-29T03:12:24.929Z,56.87
2019-05-29T03:14:53.429Z,56.90
2019-05-29T03:17:23.699Z,57.12
2019-05-29T03:19:52.407Z,57.15
2019-05-29T03:22:21.047Z,57.40
2019-05-29T03:24:49.502Z,57.60
2019-05-29T03:27:17.940Z,57.67
2019-05-29T03:29:46.320Z,57.88
2019-05-29T03:32:14.894Z,57.89
2019-05-29T03:34:46.941Z,58.19
2019-05-29T03:37:14.106Z,58.01
2019-05-29T03:39:42.543Z,57.63
2019-05-29T03:42:11.007Z,57.89
2019-05-29T03:44:39.436Z,57.90
2019-05-29T03:47:07.884Z,57.69
2019-05-29T03:49:37.446Z,57.84
2019-05-29T03:52:05.973Z,57.77
2019-05-29T03:54:35.464Z,57.98
2019-05-29T03:57:04.053Z,58.43
2019-05-29T03:59:32.749Z,58.47
2019-05-29T04:02:01.356Z,58.29
2019-05-29T04:04:31.374Z,58.26
2019-05-29T04:07:00.578Z,58.71
2019-05-29T04:09:29.288Z,58.82
2019-05-29T04:11:58.112Z,59.19
2019-05-29T04:14:27.614Z,59.35
2019-05-29T04:16:59.602Z,59.13
2019-05-29T04:19:27.836Z,59.18
2019-05-29T04:22:08.574Z,59.61
2019-05-29T04:24:39.461Z,59.17
2019-05-29T04:27:09.728Z,59.25
2019-05-29T04:29:38.470Z,59.29
2019-05-29T04:32:06.995Z,59.75
2019-05-29T04:34:36.318Z,59.48
2019-05-29T04:37:07.436Z,58.97
2019-05-29T04:39:36.933Z,58.80
2019-05-29T04:42:05.525Z,58.80
2019-05-29T04:44:35.813Z,58.55
2019-05-29T04:47:10.922Z,58.79
2019-05-29T04:49:36.153Z,58.98
2019-05-29T04:52:04.882Z,59.05
2019-05-29T04:54:35.238Z,58.33
2019-05-29T04:57:04.057Z,57.54
2019-05-29T04:59:33.027Z,58.03
2019-05-29T05:02:01.657Z,57.94
2019-05-29T05:04:31.000Z,57.71
2019-05-29T05:06:59.514Z,57.61
2019-05-29T05:09:29.230Z,57.36
2019-05-29T05:11:57.750Z,57.42
2019-05-29T05:14:26.203Z,57.13
2019-05-29T05:16:54.628Z,57.01
2019-05-29T05:19:23.057Z,57.08
2019-05-29T05:21:51.474Z,56.55
2019-05-29T05:24:20.192Z,56.41
2019-05-29T05:26:48.723Z,56.23
2019-05-29T05:29:17.487Z,56.50
2019-05-29T05:31:45.842Z,56.33
2019-05-29T05:34:14.246Z,56.00
2019-05-29T05:36:42.769Z,56.32
2019-05-29T05:39:11.148Z,55.43
2019-05-29T05:41:39.692Z,55.28
2019-05-29T05:44:08.835Z,55.36
2019-05-29T05:46:37.233Z,54.67
2019-05-29T05:49:06.830Z,54.14
2019-05-29T05:51:38.354Z,54.05
2019-05-29T05:54:05.515Z,54.36
2019-05-29T05:56:33.965Z,54.52
2019-05-29T05:59:02.454Z,54.06
2019-05-29T06:01:31.759Z,54.01
2019-05-29T06:04:00.397Z,53.05
2019-05-29T06:06:28.843Z,52.88
2019-05-29T06:08:57.290Z,52.10
2019-05-29T06:11:25.696Z,52.90
2019-05-29T06:13:54.445Z,53.04
2019-05-29T06:16:22.923Z,53.86
2019-05-29T06:18:51.616Z,53.84
2019-05-29T06:21:20.064Z,54.06
2019-05-29T06:23:48.555Z,53.43
2019-05-29T06:26:17.075Z,53.54
2019-05-29T06:28:45.641Z,53.72
2019-05-29T06:31:14.111Z,52.81
2019-05-29T06:33:43.680Z,52.26
2019-05-29T06:36:12.663Z,51.12
2019-05-29T06:38:42.186Z,50.66
2019-05-29T06:41:10.907Z,50.06
2019-05-29T06:43:39.882Z,50.17
2019-05-29T06:46:08.528Z,49.27
2019-05-29T06:48:46.672Z,48.07
2019-05-29T06:51:07.839Z,47.51
2019-05-29T06:53:37.623Z,47.55
2019-05-29T06:56:06.408Z,46.92
2019-05-29T06:58:35.906Z,45.81
2019-05-29T07:01:04.471Z,44.00
2019-05-29T07:03:32.834Z,44.02
2019-05-29T07:06:01.400Z,42.45
2019-05-29T07:08:38.767Z,41.44
2019-05-29T07:11:00.041Z,40.61
2019-05-29T07:13:28.417Z,40.77
2019-05-29T07:15:56.778Z,40.34
2019-05-29T07:18:25.238Z,39.66
2019-05-29T07:20:54.022Z,38.30
2019-05-29T07:23:22.668Z,37.89
2019-05-29T07:25:51.156Z,37.38
2019-05-29T07:28:19.800Z,38.89
2019-05-29T07:30:59.409Z,39.50
2019-05-29T07:33:18.510Z,39.49
2019-05-29T07:35:47.804Z,40.07
2019-05-29T07:38:16.570Z,39.15
2019-05-29T07:40:47.562Z,40.19
2019-05-29T07:43:15.597Z,39.18
2019-05-29T07:45:44.152Z,38.82
2019-05-29T07:48:12.645Z,39.27
2019-05-29T07:50:42.140Z,38.66
2019-05-29T07:53:10.666Z,37.96
2019-05-29T07:55:40.394Z,37.89
2019-05-29T07:58:09.347Z,37.29
2019-05-29T08:01:01.079Z,37.07
2019-05-29T08:03:08.708Z,37.42
2019-05-29T08:05:37.174Z,38.47
2019-05-29T08:08:05.599Z,39.59
2019-05-29T08:10:34.157Z,40.36
2019-05-29T08:13:02.535Z,39.47
2019-05-29T08:15:30.981Z,38.22
2019-05-29T08:17:59.670Z,34.92
2019-05-29T08:20:28.458Z,34.09
2019-05-29T08:22:57.147Z,33.95
2019-05-29T08:25:25.595Z,32.39
2019-05-29T08:27:54.012Z,33.42
2019-05-29T08:30:22.605Z,35.31
2019-05-29T08:32:51.348Z,35.62
2019-05-29T08:35:19.810Z,36.14
2019-05-29T08:37:49.141Z,36.47
2019-05-29T08:40:18.425Z,34.36
2019-05-29T08:42:47.422Z,32.91
2019-05-29T08:45:17.844Z,33.33
2019-05-29T08:47:46.211Z,34.62
2019-05-29T08:50:18.513Z,34.69
2019-05-29T08:52:45.984Z,35.68
2019-05-29T08:55:14.776Z,34.84
2019-05-29T08:57:44.229Z,33.06
2019-05-29T09:00:13.470Z,32.25
2019-05-29T09:02:42.702Z,31.57
2019-05-29T09:05:11.398Z,32.57
2019-05-29T09:07:39.748Z,33.09
2019-05-29T09:10:09.456Z,33.91
2019-05-29T09:12:38.360Z,33.68
2019-05-29T09:15:08.387Z,33.63
2019-05-29T09:17:37.363Z,34.02
2019-05-29T09:20:07.704Z,32.91
2019-05-29T09:22:37.617Z,34.07
2019-05-29T09:25:06.647Z,33.68
2019-05-29T09:27:35.253Z,33.82
2019-05-29T09:30:07.289Z,33.15
2019-05-29T09:32:49.532Z,31.26
2019-05-29T09:35:06.344Z,31.97
2019-05-29T09:37:34.789Z,32.00
2019-05-29T09:40:03.505Z,33.22
2019-05-29T09:42:31.924Z,33.85
2019-05-29T09:45:00.381Z,34.58
2019-05-29T09:47:28.842Z,34.89
2019-05-29T09:49:57.311Z,35.26
2019-05-29T09:52:25.707Z,35.89
2019-05-29T09:54:54.670Z,35.12
2019-05-29T09:57:23.228Z,35.15
2019-05-29T09:59:53.876Z,35.26
2019-05-29T10:02:21.935Z,35.18
2019-05-29T10:04:50.459Z,35.93
2019-05-29T10:07:18.909Z,36.24
2019-05-29T10:09:47.321Z,37.62
2019-05-29T10:12:15.835Z,39.55
2019-05-29T10:14:44.290Z,36.80
2019-05-29T10:17:13.332Z,39.02
2019-05-29T10:19:41.875Z,37.85
2019-05-29T10:22:10.273Z,37.97
2019-05-29T10:24:38.752Z,36.54
2019-05-29T10:27:07.268Z,37.22
2019-05-29T10:29:35.749Z,34.76
2019-05-29T10:32:04.274Z,35.07
2019-05-29T10:34:32.735Z,34.72
2019-05-29T10:37:01.275Z,34.64
2019-05-29T10:39:29.662Z,35.75
2019-05-29T10:41:58.046Z,34.29
2019-05-29T10:44:26.952Z,35.74
2019-05-29T10:46:56.606Z,34.59
2019-05-29T10:49:25.454Z,33.16
2019-05-29T10:52:12.893Z,33.11
2019-05-29T10:54:24.132Z,32.61
2019-05-29T10:56:53.058Z,32.02
2019-05-29T10:59:21.633Z,32.07
2019-05-29T11:01:51.284Z,34.22
2019-05-29T11:04:20.313Z,35.91
2019-05-29T11:06:50.033Z,34.55
2019-05-29T11:09:18.774Z,34.02
2019-05-29T11:11:48.447Z,34.39
2019-05-29T11:14:17.135Z,34.16
2019-05-29T11:16:46.818Z,34.71
2019-05-29T11:19:15.486Z,35.69
2019-05-29T11:21:44.332Z,35.16
2019-05-29T11:24:12.779Z,34.09
2019-05-29T11:26:41.234Z,34.89
2019-05-29T11:29:10.079Z,35.67
2019-05-29T11:31:38.526Z,33.87
2019-05-29T11:34:07.092Z,33.97
2019-05-29T11:36:35.549Z,31.85
2019-05-29T11:39:06.435Z,32.86
2019-05-29T11:41:34.923Z,31.22
2019-05-29T11:44:03.439Z,30.06
2019-05-29T11:46:31.993Z,29.52
2019-05-29T11:49:00.394Z,29.00
2019-05-29T11:51:28.836Z,30.23
2019-05-29T11:53:57.592Z,32.50
2019-05-29T11:56:26.217Z,32.01
2019-05-29T11:58:54.865Z,31.19
2019-05-29T12:01:23.318Z,30.39
2019-05-29T12:04:15.448Z,29.12
2019-05-29T12:06:22.162Z,29.17
2019-05-29T12:08:51.465Z,29.70
2019-05-29T12:11:19.965Z,31.01
2019-05-29T12:13:48.338Z,28.96
2019-05-29T12:16:17.189Z,23.48
2019-05-29T12:18:45.639Z,20.22
2019-05-29T12:21:14.357Z,16.69
2019-05-29T12:23:43.042Z,14.05
2019-05-29T12:26:21.735Z,14.05
2019-05-29T12:28:41.910Z,12.63
2019-05-29T12:31:10.433Z,12.38
2019-05-29T12:33:38.914Z,12.37
2019-05-29T12:36:07.730Z,13.07
2019-05-29T12:38:36.150Z,12.45
2019-05-29T12:41:05.103Z,13.35
2019-05-29T12:43:33.568Z,12.06
2019-05-29T12:46:02.243Z,10.84
2019-05-29T12:48:30.729Z,10.75
2019-05-29T12:51:00.248Z,11.11
2019-05-29T12:53:31.257Z,10.66
2019-05-29T12:56:00.543Z,10.19
2019-05-29T12:58:29.302Z,10.41
2019-05-29T13:00:58.561Z,13.29
2019-05-29T13:03:27.149Z,13.56
2019-05-29T13:05:56.053Z,14.03
2019-05-29T13:08:24.939Z,11.68
2019-05-29T13:10:54.244Z,11.37
2019-05-29T13:13:22.941Z,10.54
2019-05-29T13:15:51.685Z,10.30
2019-05-29T13:18:20.145Z,10.22
2019-05-29T13:20:48.516Z,9.41
2019-05-29T13:23:16.967Z,8.62
2019-05-29T13:25:45.446Z,8.95
2019-05-29T13:28:13.997Z,9.68
2019-05-29T13:30:42.537Z,10.82
2019-05-29T13:33:11.010Z,14.11
2019-05-29T13:35:39.555Z,12.86
2019-05-29T13:38:08.112Z,11.17
2019-05-29T13:40:36.589Z,10.66
2019-05-29T13:43:13.161Z,9.93
2019-05-29T13:45:35.350Z,9.32
2019-05-29T13:48:05.227Z,10.90
2019-05-29T13:50:33.925Z,13.36
2019-05-29T13:53:03.539Z,13.17
2019-05-29T13:55:32.273Z,13.78
2019-05-29T13:58:01.642Z,15.42
2019-05-29T14:00:34.418Z,17.20
2019-05-29T14:03:02.456Z,19.33
2019-05-29T14:05:30.885Z,22.42
2019-05-29T14:08:00.525Z,22.45
2019-05-29T14:10:29.140Z,19.78
2019-05-29T14:12:58.836Z,16.62
2019-05-29T14:15:27.520Z,14.98
2019-05-29T14:17:56.086Z,14.59
2019-05-29T14:20:24.599Z,14.76
2019-05-29T14:22:52.991Z,14.89
2019-05-29T14:25:21.583Z,15.84
2019-05-29T14:27:50.362Z,16.78
2019-05-29T14:30:19.235Z,16.87
2019-05-29T14:32:48.092Z,17.84
2019-05-29T14:35:16.709Z,19.83
2019-05-29T14:37:45.259Z,20.25
2019-05-29T14:40:14.380Z,20.23
2019-05-29T14:42:42.905Z,21.76
2019-05-29T14:45:14.229Z,21.20
2019-05-29T14:47:42.763Z,21.87
2019-05-29T14:50:13.529Z,21.98
2019-05-29T14:52:42.109Z,22.61
2019-05-29T14:55:17.451Z,22.99
2019-05-29T14:57:41.307Z,23.83
2019-05-29T15:00:24.428Z,23.87
2019-05-29T15:02:44.432Z,24.32
2019-05-29T15:05:14.960Z,24.49
2019-05-29T15:07:43.769Z,25.25
2019-05-29T15:10:24.989Z,25.95
2019-05-29T15:12:42.622Z,26.55
2019-05-29T15:15:15.606Z,26.68
2019-05-29T15:17:42.480Z,26.53
2019-05-29T15:20:12.970Z,27.42
2019-05-29T15:22:42.360Z,27.70
2019-05-29T15:25:19.990Z,27.52
2019-05-29T15:27:41.440Z,27.53
2019-05-29T15:30:11.546Z,27.21
2019-05-29T15:32:41.351Z,27.46
2019-05-29T15:35:14.362Z,27.09
2019-05-29T15:37:40.477Z,27.57
2019-05-29T15:40:10.862Z,27.89
2019-05-29T15:42:39.529Z,26.02
2019-05-29T15:45:09.721Z,26.35
2019-05-29T15:47:38.327Z,26.11
2019-05-29T15:50:09.172Z,26.43
2019-05-29T15:52:37.836Z,25.81
2019-05-29T15:55:22.431Z,26.66
2019-05-29T15:57:38.558Z,25.78
2019-05-29T16:00:11.869Z,26.43
2019-05-29T16:02:42.198Z,26.26
2019-05-29T16:05:13.171Z,26.68
2019-05-29T16:07:41.830Z,26.70
2019-05-29T16:10:14.667Z,26.46
2019-05-29T16:12:41.618Z,27.50
2019-05-29T16:15:11.433Z,27.55
2019-05-29T16:17:40.080Z,28.01
2019-05-29T16:20:10.519Z,27.74
2019-05-29T16:22:39.215Z,28.12
2019-05-29T16:25:08.344Z,28.08
2019-05-29T16:27:36.720Z,27.23
2019-05-29T16:30:08.975Z,27.71
2019-05-29T16:32:37.556Z,27.57
2019-05-29T16:35:08.441Z,28.17
2019-05-29T16:37:37.247Z,28.59
2019-05-29T16:40:08.498Z,28.33
2019-05-29T16:42:37.033Z,28.82
2019-05-29T16:45:08.840Z,29.10
2019-05-29T16:47:37.316Z,29.56
2019-05-29T16:50:08.621Z,29.50
2019-05-29T16:52:38.989Z,29.51
2019-05-29T16:55:07.907Z,30.07
2019-05-29T16:57:36.357Z,28.75
2019-05-29T17:00:13.606Z,28.16
2019-05-29T17:02:42.408Z,28.21
2019-05-29T17:05:11.334Z,28.71
2019-05-29T17:07:39.945Z,28.73
2019-05-29T17:10:10.674Z,28.74
2019-05-29T17:12:39.463Z,29.25
2019-05-29T17:15:16.954Z,29.89
2019-05-29T17:17:45.642Z,30.01
2019-05-29T17:20:14.728Z,30.52
2019-05-29T17:22:43.181Z,29.69
2019-05-29T17:25:11.804Z,29.95
2019-05-29T17:27:40.275Z,29.59
2019-05-29T17:30:09.102Z,30.11
2019-05-29T17:32:37.555Z,29.83
2019-05-29T17:35:08.072Z,30.06
2019-05-29T17:37:36.895Z,30.12
2019-05-29T17:40:08.567Z,30.48
2019-05-29T17:42:37.016Z,30.27
2019-05-29T17:45:08.846Z,30.23
2019-05-29T17:47:38.153Z,30.59
2019-05-29T17:50:08.181Z,30.81
2019-05-29T17:52:36.652Z,31.04
2019-05-29T17:55:09.211Z,31.20
2019-05-29T17:57:37.685Z,31.35
2019-05-29T18:00:11.273Z,31.73
2019-05-29T18:02:51.503Z,31.67
2019-05-29T18:05:12.391Z,31.54
2019-05-29T18:07:40.912Z,31.70
2019-05-29T18:10:10.761Z,31.83
2019-05-29T18:12:39.677Z,31.78
2019-05-29T18:15:08.590Z,31.65
2019-05-29T18:17:37.056Z,31.87
2019-05-29T18:20:07.101Z,31.66
2019-05-29T18:22:35.665Z,31.53
2019-05-29T18:25:07.638Z,31.89
2019-05-29T18:27:36.310Z,32.01
2019-05-29T18:30:08.200Z,32.37
2019-05-29T18:32:37.335Z,32.18
2019-05-29T18:35:30.050Z,32.12
2019-05-29T18:37:58.517Z,32.09
2019-05-29T18:40:28.773Z,32.02
2019-05-29T18:43:02.502Z,32.46
2019-05-29T18:45:31.317Z,32.53
2019-05-29T18:48:00.038Z,32.58
2019-05-29T18:50:29.680Z,32.73
2019-05-29T18:52:58.389Z,32.68
2019-05-29T18:55:29.772Z,32.90
2019-05-29T18:58:02.159Z,32.56
2019-05-29T19:00:31.536Z,32.80
2019-05-29T19:03:00.192Z,33.12
2019-05-29T19:05:29.754Z,33.07
2019-05-29T19:07:59.917Z,33.16
2019-05-29T19:10:29.777Z,33.28
2019-05-29T19:12:58.659Z,33.56
2019-05-29T19:15:32.024Z,33.79
2019-05-29T19:18:01.285Z,33.88
2019-05-29T19:20:30.520Z,33.72
2019-05-29T19:22:59.311Z,34.09
2019-05-29T19:25:29.037Z,34.09
2019-05-29T19:27:57.789Z,34.13
2019-05-29T19:30:26.904Z,34.20
2019-05-29T19:32:55.712Z,34.40
2019-05-29T19:35:25.426Z,34.71
2019-05-29T19:37:57.341Z,35.03
2019-05-29T19:40:26.100Z,35.01
2019-05-29T19:42:56.409Z,34.86
2019-05-29T19:45:30.546Z,35.18
2019-05-29T19:47:59.577Z,35.09
2019-05-29T19:50:28.767Z,35.62
2019-05-29T19:52:57.498Z,35.49
2019-05-29T19:55:36.307Z,35.51
2019-05-29T19:58:06.359Z,35.85
2019-05-29T20:00:36.801Z,35.95
2019-05-29T20:03:05.722Z,35.57
2019-05-29T20:05:34.948Z,35.89
2019-05-29T20:08:03.678Z,35.70
2019-05-29T20:10:33.442Z,35.94
2019-05-29T20:13:02.364Z,35.82
2019-05-29T20:15:31.941Z,36.01
2019-05-29T20:18:00.529Z,35.65
2019-05-29T20:20:30.236Z,36.00
2019-05-29T20:22:58.800Z,36.12
2019-05-29T20:25:27.258Z,36.22
2019-05-29T20:28:05.855Z,35.99
2019-05-29T20:30:26.151Z,36.22
2019-05-29T20:32:54.934Z,36.57
2019-05-29T20:35:23.394Z,36.81
2019-05-29T20:37:51.870Z,36.96
2019-05-29T20:40:20.249Z,36.87
2019-05-29T20:42:48.700Z,37.08
2019-05-29T20:45:18.831Z,37.42
2019-05-29T20:47:47.238Z,37.53
2019-05-29T20:50:15.803Z,37.30
2019-05-29T20:52:44.443Z,38.06
2019-05-29T20:55:14.103Z,38.34
2019-05-29T20:57:42.561Z,38.49
2019-05-29T21:00:12.371Z,38.51
2019-05-29T21:02:42.326Z,38.69
2019-05-29T21:05:11.161Z,38.66
2019-05-29T21:07:40.942Z,39.33
2019-05-29T21:10:10.043Z,39.05
2019-05-29T21:12:41.902Z,39.08
2019-05-29T21:15:09.017Z,38.76
2019-05-29T21:17:37.931Z,39.12
2019-05-29T21:20:08.540Z,39.48
2019-05-29T21:22:36.982Z,39.27
2019-05-29T21:25:14.855Z,39.25
2019-05-29T21:27:43.981Z,39.38
2019-05-29T21:30:10.289Z,39.40
2019-05-29T21:32:40.178Z,39.55
2019-05-29T21:35:08.984Z,39.56
2019-05-29T21:37:38.210Z,39.84
2019-05-29T21:40:07.153Z,39.99
2019-05-29T21:42:36.533Z,40.23
2019-05-29T21:45:06.777Z,40.12
2019-05-29T21:47:35.231Z,40.11
2019-05-29T21:50:05.945Z,40.37
2019-05-29T21:52:34.436Z,40.39
2019-05-29T21:55:02.995Z,40.66
2019-05-29T21:57:31.460Z,40.99
2019-05-29T22:00:00.293Z,41.25
2019-05-29T22:02:28.819Z,41.72
2019-05-29T22:04:57.796Z,41.60
2019-05-29T22:07:26.308Z,41.69
2019-05-29T22:09:54.868Z,41.76
2019-05-29T22:12:23.307Z,41.92
2019-05-29T22:14:53.201Z,41.71
2019-05-29T22:17:21.779Z,41.72
2019-05-29T22:19:50.826Z,41.92
2019-05-29T22:22:19.355Z,42.43
2019-05-29T22:24:47.808Z,42.22
2019-05-29T22:27:16.279Z,42.70
2019-05-29T22:29:44.860Z,42.79
2019-05-29T22:32:13.349Z,42.94
2019-05-29T22:34:41.943Z,43.26
2019-05-29T22:37:10.798Z,43.26
2019-05-29T22:39:39.260Z,43.43
2019-05-29T22:42:07.710Z,43.65
2019-05-29T22:44:36.114Z,43.59
2019-05-29T22:47:04.831Z,43.62
2019-05-29T22:49:33.385Z,43.62
2019-05-29T22:52:02.262Z,43.79
2019-05-29T22:54:30.923Z,43.60
2019-05-29T22:56:59.995Z,43.75
2019-05-29T22:59:31.836Z,43.68
2019-05-29T23:01:58.642Z,43.48
2019-05-29T23:04:27.421Z,43.44
2019-05-29T23:06:56.379Z,43.32
2019-05-29T23:09:24.817Z,43.73
2019-05-29T23:11:54.151Z,43.80
2019-05-29T23:14:22.748Z,43.99
2019-05-29T23:16:52.378Z,44.19
2019-05-29T23:19:20.853Z,44.47
2019-05-29T23:21:49.235Z,44.79
2019-05-29T23:24:17.609Z,45.09
2019-05-29T23:26:46.009Z,45.42
2019-05-29T23:29:14.459Z,45.64
2019-05-29T23:31:42.857Z,45.84
2019-05-29T23:34:11.522Z,46.19
2019-05-29T23:36:39.939Z,46.36
2019-05-29T23:39:08.796Z,46.59
2019-05-29T23:41:37.225Z,46.86
2019-05-29T23:44:05.674Z,47.12
2019-05-29T23:46:34.088Z,47.14
2019-05-29T23:49:03.851Z,47.56
2019-05-29T23:51:32.442Z,47.75
2019-05-29T23:54:01.880Z,47.81
2019-05-29T23:56:30.312Z,47.97
2019-05-29T23:58:59.917Z,48.11
